createdAt,value
2018-11-04T00:02:07.730Z,33.07
2018-11-04T00:04:47.316Z,34.13
2018-11-04T00:07:20.671Z,34.70
2018-11-04T00:09:56.583Z,33.93
2018-11-04T00:12:31.231Z,32.33
2018-11-04T00:15:05.635Z,45.20
2018-11-04T00:17:41.761Z,36.73
2018-11-04T00:20:17.934Z,35.30
2018-11-04T00:22:51.866Z,32.37
2018-11-04T00:25:27.309Z,40.00
2018-11-04T00:28:03.467Z,35.17
2018-11-04T00:30:39.128Z,40.10
2018-11-04T00:33:15.080Z,47.10
2018-11-04T00:35:48.679Z,53.30
2018-11-04T00:38:25.337Z,57.37
2018-11-04T00:41:03.675Z,50.57
2018-11-04T00:43:38.677Z,38.57
2018-11-04T00:46:12.374Z,40.37
2018-11-04T00:48:45.689Z,40.80
2018-11-04T00:51:20.834Z,42.70
2018-11-04T00:53:54.998Z,34.95
2018-11-04T00:56:27.633Z,34.00
2018-11-04T00:59:09.415Z,28.23
2018-11-04T01:01:42.626Z,42.20
2018-11-04T01:04:15.494Z,41.03
2018-11-04T01:06:52.338Z,46.17
2018-11-04T01:09:24.877Z,39.53
2018-11-04T01:11:58.823Z,35.40
2018-11-04T01:14:32.047Z,39.17
2018-11-04T01:17:05.618Z,41.47
2018-11-04T01:19:39.685Z,55.78
2018-11-04T01:22:13.565Z,51.57
2018-11-04T01:24:46.290Z,62.63
2018-11-04T01:27:19.860Z,52.10
2018-11-04T01:29:55.449Z,44.40
2018-11-04T01:32:28.316Z,44.27
2018-11-04T01:35:01.521Z,35.95
2018-11-04T01:37:35.952Z,60.58
2018-11-04T01:40:12.505Z,51.10
2018-11-04T01:42:45.217Z,74.10
2018-11-04T01:45:18.812Z,67.40
2018-11-04T01:47:52.950Z,69.83
2018-11-04T01:50:27.687Z,70.77
2018-11-04T01:53:00.565Z,82.77
2018-11-04T01:55:33.114Z,85.60
2018-11-04T01:58:13.365Z,83.07
2018-11-04T02:00:46.559Z,88.73
2018-11-04T02:03:21.493Z,93.27
2018-11-04T02:05:54.321Z,100.50
2018-11-04T02:08:29.442Z,101.57
2018-11-04T02:11:17.709Z,109.37
2018-11-04T02:13:50.889Z,100.17
2018-11-04T02:16:26.681Z,109.97
2018-11-04T02:19:00.813Z,100.77
2018-11-04T02:21:36.763Z,91.95
2018-11-04T02:24:14.666Z,92.47
2018-11-04T02:26:48.357Z,98.27
2018-11-04T02:29:21.543Z,99.13
2018-11-04T02:31:54.322Z,96.77
2018-11-04T02:34:26.966Z,90.57
2018-11-04T02:37:02.560Z,87.13
2018-11-04T02:39:37.761Z,83.53
2018-11-04T02:42:10.385Z,92.40
2018-11-04T02:44:43.358Z,92.87
2018-11-04T02:47:16.574Z,89.53
2018-11-04T02:49:51.025Z,95.87
2018-11-04T02:52:23.961Z,75.30
2018-11-04T02:54:56.514Z,87.33
2018-11-04T02:57:29.117Z,59.92
2018-11-04T03:00:06.282Z,62.40
2018-11-04T03:02:39.072Z,68.17
2018-11-04T03:05:11.906Z,47.53
2018-11-04T03:07:44.896Z,44.27
2018-11-04T03:10:19.045Z,35.57
2018-11-04T03:12:51.534Z,36.13
2018-11-04T03:15:25.831Z,35.37
2018-11-04T03:17:58.266Z,36.00
2018-11-04T03:20:30.862Z,35.33
2018-11-04T03:23:05.474Z,38.90
2018-11-04T03:25:38.457Z,40.10
2018-11-04T03:28:11.063Z,37.97
2018-11-04T03:30:43.867Z,45.13
2018-11-04T03:33:16.363Z,46.37
2018-11-04T03:35:49.062Z,59.03
2018-11-04T03:38:21.982Z,52.13
2018-11-04T03:40:54.595Z,46.80
2018-11-04T03:43:27.153Z,48.60
2018-11-04T03:46:00.175Z,47.70
2018-11-04T03:48:37.213Z,42.70
2018-11-04T03:51:20.451Z,42.30
2018-11-04T03:53:53.210Z,40.23
2018-11-04T03:56:25.824Z,36.17
2018-11-04T03:59:00.810Z,34.30
2018-11-04T04:01:34.421Z,35.30
2018-11-04T04:04:07.462Z,37.33
2018-11-04T04:06:41.234Z,33.37
2018-11-04T04:09:14.070Z,34.83
2018-11-04T04:11:46.645Z,34.93
2018-11-04T04:14:19.578Z,26.40
2018-11-04T04:16:53.952Z,32.03
2018-11-04T04:19:26.502Z,33.57
2018-11-04T04:22:00.767Z,35.97
2018-11-04T04:24:34.310Z,44.40
2018-11-04T04:27:07.145Z,43.23
2018-11-04T04:29:42.735Z,48.77
2018-11-04T04:32:15.304Z,42.17
2018-11-04T04:34:48.148Z,43.07
2018-11-04T04:37:21.132Z,42.83
2018-11-04T04:39:53.617Z,49.50
2018-11-04T04:42:26.818Z,53.20
2018-11-04T04:44:59.580Z,40.40
2018-11-04T04:47:33.846Z,44.77
2018-11-04T04:50:07.001Z,41.97
2018-11-04T04:52:41.251Z,48.53
2018-11-04T04:55:14.069Z,52.27
2018-11-04T04:57:47.652Z,54.90
2018-11-04T05:00:23.599Z,44.37
2018-11-04T05:02:57.454Z,49.63
2018-11-04T05:05:30.308Z,41.13
2018-11-04T05:08:05.327Z,35.93
2018-11-04T05:10:37.894Z,31.63
2018-11-04T05:13:11.180Z,38.60
2018-11-04T05:15:56.582Z,32.67
2018-11-04T05:18:29.772Z,33.67
2018-11-04T05:21:02.446Z,30.20
2018-11-04T05:23:35.673Z,25.87
2018-11-04T05:26:09.907Z,21.37
2018-11-04T05:28:42.577Z,25.73
2018-11-04T05:31:19.238Z,28.33
2018-11-04T05:33:51.821Z,31.20
2018-11-04T05:36:24.970Z,35.30
2018-11-04T05:38:58.288Z,34.13
2018-11-04T05:41:31.027Z,33.63
2018-11-04T05:44:05.997Z,40.08
2018-11-04T05:46:39.707Z,44.58
2018-11-04T05:49:12.765Z,37.47
2018-11-04T05:51:45.337Z,31.57
2018-11-04T05:54:18.613Z,35.10
2018-11-04T05:56:51.345Z,37.77
2018-11-04T05:59:24.516Z,37.60
2018-11-04T06:01:58.548Z,33.07
2018-11-04T06:04:31.146Z,31.00
2018-11-04T06:07:03.722Z,33.97
2018-11-04T06:09:40.986Z,28.50
2018-11-04T06:12:13.791Z,27.97
2018-11-04T06:14:47.150Z,38.80
2018-11-04T06:17:20.190Z,33.97
2018-11-04T06:19:52.753Z,40.97
2018-11-04T06:22:27.629Z,39.07
2018-11-04T06:25:00.406Z,37.70
2018-11-04T06:27:33.192Z,36.00
2018-11-04T06:30:10.889Z,40.87
2018-11-04T06:32:45.110Z,44.13
2018-11-04T06:35:17.856Z,44.50
2018-11-04T06:37:50.881Z,44.47
2018-11-04T06:40:23.519Z,47.60
2018-11-04T06:42:56.162Z,36.97
2018-11-04T06:45:30.423Z,36.57
2018-11-04T06:48:03.190Z,40.77
2018-11-04T06:50:35.950Z,40.67
2018-11-04T06:53:09.074Z,34.90
2018-11-04T06:55:41.734Z,35.33
2018-11-04T06:58:15.849Z,38.57
2018-11-04T07:00:50.135Z,38.87
2018-11-04T07:03:22.701Z,40.10
2018-11-04T07:05:55.516Z,38.20
2018-11-04T07:08:35.046Z,36.10
2018-11-04T07:11:08.807Z,39.90
2018-11-04T07:13:41.425Z,37.77
2018-11-04T07:16:19.399Z,39.50
2018-11-04T07:18:52.081Z,36.70
2018-11-04T07:21:27.109Z,37.50
2018-11-04T07:24:02.107Z,36.07
2018-11-04T07:26:35.436Z,34.63
2018-11-04T07:29:08.860Z,37.10
2018-11-04T07:31:41.979Z,34.57
2018-11-04T07:34:16.534Z,31.47
2018-11-04T07:36:49.140Z,34.63
2018-11-04T07:39:23.833Z,33.13
2018-11-04T07:41:57.518Z,36.20
2018-11-04T07:44:31.645Z,34.17
2018-11-04T07:47:06.321Z,34.47
2018-11-04T07:49:38.903Z,36.70
2018-11-04T07:52:19.751Z,31.93
2018-11-04T07:54:53.738Z,32.20
2018-11-04T07:57:26.299Z,38.83
2018-11-04T07:59:59.022Z,32.70
2018-11-04T08:02:32.072Z,30.90
2018-11-04T08:05:04.901Z,34.07
2018-11-04T08:07:39.334Z,36.70
2018-11-04T08:10:13.334Z,33.33
2018-11-04T08:12:46.341Z,33.40
2018-11-04T08:15:19.814Z,35.10
2018-11-04T08:17:56.001Z,31.30
2018-11-04T08:20:28.853Z,35.90
2018-11-04T08:23:04.316Z,33.80
2018-11-04T08:25:37.020Z,37.80
2018-11-04T08:28:15.996Z,34.00
2018-11-04T08:30:57.566Z,31.33
2018-11-04T08:33:40.322Z,33.50
2018-11-04T08:36:18.294Z,34.40
2018-11-04T08:38:52.580Z,33.10
2018-11-04T08:41:25.971Z,33.67
2018-11-04T08:43:59.028Z,32.57
2018-11-04T08:46:36.042Z,35.20
2018-11-04T08:49:12.921Z,34.67
2018-11-04T08:51:47.165Z,33.27
2018-11-04T08:54:21.365Z,30.92
2018-11-04T08:56:57.096Z,30.17
2018-11-04T08:59:34.816Z,30.90
2018-11-04T09:02:08.932Z,30.70
2018-11-04T09:04:42.379Z,33.90
2018-11-04T09:07:38.956Z,32.37
2018-11-04T09:10:33.097Z,33.37
2018-11-04T09:13:08.575Z,35.60
2018-11-04T09:15:43.507Z,38.07
2018-11-04T09:18:19.383Z,32.60
2018-11-04T09:20:58.622Z,31.65
2018-11-04T09:23:35.956Z,29.20
2018-11-04T09:26:12.489Z,32.30
2018-11-04T09:28:47.073Z,32.40
2018-11-04T09:31:23.509Z,34.27
2018-11-04T09:33:56.262Z,29.53
2018-11-04T09:36:34.629Z,29.37
2018-11-04T09:39:20.967Z,28.33
2018-11-04T09:41:58.418Z,32.43
2018-11-04T09:44:32.617Z,32.07
2018-11-04T09:47:08.574Z,29.37
2018-11-04T09:49:44.431Z,32.30
2018-11-04T09:52:18.498Z,32.53
2018-11-04T09:54:55.198Z,32.13
2018-11-04T09:57:29.226Z,32.07
2018-11-04T10:00:07.934Z,29.00
2018-11-04T10:02:42.313Z,30.37
2018-11-04T10:05:17.917Z,33.30
2018-11-04T10:07:56.882Z,33.47
2018-11-04T10:10:35.007Z,30.57
2018-11-04T10:13:09.517Z,32.60
2018-11-04T10:15:47.518Z,33.27
2018-11-04T10:18:25.757Z,31.67
2018-11-04T10:21:01.416Z,32.07
2018-11-04T10:23:37.935Z,30.53
2018-11-04T10:26:14.421Z,31.50
2018-11-04T10:28:49.560Z,30.95
2018-11-04T10:31:24.646Z,29.37
2018-11-04T10:34:00.907Z,29.77
2018-11-04T10:36:36.413Z,29.90
2018-11-04T10:39:12.544Z,31.40
2018-11-04T10:41:51.605Z,32.50
2018-11-04T10:44:25.502Z,29.08
2018-11-04T10:47:03.885Z,29.53
2018-11-04T10:49:39.034Z,29.77
2018-11-04T10:52:13.775Z,30.00
2018-11-04T10:54:58.656Z,29.03
2018-11-04T10:57:33.651Z,30.57
2018-11-04T11:00:17.665Z,27.83
2018-11-04T11:02:52.271Z,29.60
2018-11-04T11:05:34.609Z,31.27
2018-11-04T11:08:08.239Z,30.20
2018-11-04T11:10:42.569Z,28.60
2018-11-04T11:13:18.649Z,28.43
2018-11-04T11:15:53.181Z,31.40
2018-11-04T11:18:28.337Z,28.47
2018-11-04T11:21:09.907Z,27.95
2018-11-04T11:23:44.326Z,30.80
2018-11-04T11:26:19.593Z,29.95
2018-11-04T11:28:57.692Z,27.90
2018-11-04T11:31:38.199Z,30.63
2018-11-04T11:34:11.363Z,29.80
2018-11-04T11:36:47.826Z,29.87
2018-11-04T11:39:27.023Z,29.58
2018-11-04T11:44:45.527Z,27.83
2018-11-04T11:47:24.849Z,28.20
2018-11-04T11:50:22.587Z,29.00
2018-11-04T11:53:10.463Z,29.23
2018-11-04T11:55:47.905Z,27.83
2018-11-04T11:58:46.489Z,25.57
2018-11-04T12:01:21.098Z,29.83
2018-11-04T12:03:54.883Z,29.70
2018-11-04T12:06:35.799Z,28.87
2018-11-04T12:09:14.298Z,26.97
2018-11-04T12:11:48.944Z,31.30
2018-11-04T12:14:25.571Z,28.70
2018-11-04T12:17:00.150Z,28.27
2018-11-04T12:19:33.737Z,24.93
2018-11-04T12:22:23.418Z,28.30
2018-11-04T12:25:04.867Z,27.23
2018-11-04T12:27:43.347Z,25.10
2018-11-04T12:30:20.102Z,27.90
2018-11-04T12:32:57.722Z,26.70
2018-11-04T12:35:34.110Z,25.87
2018-11-04T12:38:12.811Z,29.60
2018-11-04T12:40:47.404Z,27.57
2018-11-04T12:43:21.176Z,27.30
2018-11-04T12:45:57.855Z,28.63
2018-11-04T12:48:33.664Z,26.80
2018-11-04T12:51:14.565Z,24.83
2018-11-04T12:53:52.996Z,25.40
2018-11-04T12:56:27.879Z,27.90
2018-11-04T12:59:05.310Z,25.10
2018-11-04T13:01:46.466Z,24.47
2018-11-04T13:04:22.559Z,24.83
2018-11-04T13:07:04.228Z,27.33
2018-11-04T13:09:36.976Z,25.47
2018-11-04T13:12:15.625Z,27.30
2018-11-04T13:14:51.803Z,25.57
2018-11-04T13:17:33.803Z,26.93
2018-11-04T13:20:15.751Z,25.57
2018-11-04T13:22:51.306Z,23.00
2018-11-04T13:25:39.318Z,25.83
2018-11-04T13:28:16.397Z,24.07
2018-11-04T13:30:50.746Z,28.57
2018-11-04T13:33:28.578Z,23.33
2018-11-04T13:38:41.942Z,24.40
2018-11-04T13:41:15.554Z,24.93
2018-11-04T13:43:55.852Z,23.80
2018-11-04T13:46:30.837Z,26.63
2018-11-04T13:49:04.175Z,25.85
2018-11-04T13:51:40.129Z,24.95
2018-11-04T13:54:19.073Z,24.30
2018-11-04T13:56:56.341Z,23.50
2018-11-04T13:59:45.342Z,24.23
2018-11-04T14:02:31.813Z,25.90
2018-11-04T14:05:08.947Z,24.55
2018-11-04T14:07:47.010Z,22.30
2018-11-04T14:10:25.196Z,23.33
2018-11-04T14:13:02.786Z,23.60
2018-11-04T14:15:38.505Z,26.87
2018-11-04T14:18:14.965Z,23.60
2018-11-04T14:20:56.259Z,25.52
2018-11-04T14:23:34.663Z,25.57
2018-11-04T14:26:10.254Z,25.77
2018-11-04T14:28:46.960Z,24.97
2018-11-04T14:31:21.739Z,24.40
2018-11-04T14:33:57.773Z,25.57
2018-11-04T14:36:31.517Z,26.30
2018-11-04T14:39:08.786Z,24.97
2018-11-04T14:41:46.189Z,27.07
2018-11-04T14:44:27.535Z,24.30
2018-11-04T14:47:04.035Z,23.87
2018-11-04T14:49:38.373Z,21.80
2018-11-04T14:52:14.420Z,26.13
2018-11-04T14:54:48.112Z,21.37
2018-11-04T14:57:26.743Z,23.27
2018-11-04T15:00:06.103Z,24.87
2018-11-04T15:02:40.682Z,23.58
2018-11-04T15:05:15.485Z,23.65
2018-11-04T15:07:50.787Z,23.13
2018-11-04T15:10:25.781Z,23.97
2018-11-04T15:13:02.752Z,24.87
2018-11-04T15:15:39.645Z,25.17
2018-11-04T15:18:12.995Z,23.33
2018-11-04T15:20:46.018Z,22.60
2018-11-04T15:23:20.184Z,27.23
2018-11-04T15:25:57.159Z,25.93
2018-11-04T15:28:40.578Z,23.73
2018-11-04T15:31:21.014Z,24.67
2018-11-04T15:34:11.588Z,25.27
2018-11-04T15:36:50.577Z,22.70
2018-11-04T15:39:24.707Z,31.30
2018-11-04T15:42:02.561Z,26.20
2018-11-04T15:44:37.918Z,25.90
2018-11-04T15:47:11.864Z,22.67
2018-11-04T15:49:51.270Z,26.33
2018-11-04T15:52:26.357Z,24.27
2018-11-04T15:55:01.710Z,22.63
2018-11-04T15:57:49.122Z,23.87
2018-11-04T16:00:23.759Z,23.43
2018-11-04T16:02:58.200Z,22.87
2018-11-04T16:05:32.348Z,19.90
2018-11-04T16:08:06.383Z,22.37
2018-11-04T16:10:43.719Z,20.57
2018-11-04T16:13:22.537Z,22.70
2018-11-04T16:16:03.663Z,20.77
2018-11-04T16:18:42.577Z,21.17
2018-11-04T16:21:20.905Z,21.93
2018-11-04T16:23:58.921Z,20.80
2018-11-04T16:26:33.613Z,22.03
2018-11-04T16:29:10.468Z,20.33
2018-11-04T16:31:44.392Z,18.77
2018-11-04T16:34:28.018Z,19.73
2018-11-04T16:37:04.021Z,20.50
2018-11-04T16:39:39.325Z,17.53
2018-11-04T16:42:15.572Z,21.00
2018-11-04T16:44:52.649Z,19.70
2018-11-04T16:47:37.442Z,21.83
2018-11-04T16:50:18.438Z,17.23
2018-11-04T16:52:56.546Z,18.35
2018-11-04T16:55:38.495Z,19.47
2018-11-04T16:58:14.837Z,21.13
2018-11-04T17:00:54.793Z,18.03
2018-11-04T17:03:33.670Z,20.47
2018-11-04T17:06:08.317Z,18.90
2018-11-04T17:08:51.836Z,19.97
2018-11-04T17:11:27.877Z,20.03
2018-11-04T17:14:01.718Z,19.27
2018-11-04T17:16:40.734Z,16.30
2018-11-04T17:19:15.631Z,22.17
2018-11-04T17:21:53.777Z,22.30
2018-11-04T17:24:55.143Z,20.07
2018-11-04T17:27:34.721Z,18.53
2018-11-04T17:30:17.939Z,19.87
2018-11-04T17:33:00.773Z,18.90
2018-11-04T17:35:35.725Z,18.05
2018-11-04T17:38:10.758Z,19.57
2018-11-04T17:40:51.447Z,18.07
2018-11-04T17:43:34.523Z,18.90
2018-11-04T17:46:14.073Z,18.70
2018-11-04T17:48:51.404Z,17.43
2018-11-04T17:51:30.968Z,17.07
2018-11-04T17:54:07.051Z,18.93
2018-11-04T17:56:43.081Z,21.87
2018-11-04T17:59:18.311Z,21.60
2018-11-04T18:01:57.545Z,18.80
2018-11-04T18:04:36.991Z,20.83
2018-11-04T18:07:20.451Z,20.17
2018-11-04T18:10:10.474Z,21.13
2018-11-04T18:12:46.858Z,21.53
2018-11-04T18:15:20.419Z,23.80
2018-11-04T18:17:58.717Z,22.50
2018-11-04T18:20:34.928Z,23.10
2018-11-04T18:23:19.885Z,21.20
2018-11-04T18:25:54.404Z,23.40
2018-11-04T18:28:30.865Z,20.23
2018-11-04T18:31:07.949Z,21.77
2018-11-04T18:33:50.631Z,26.83
2018-11-04T18:36:33.792Z,23.60
2018-11-04T18:39:10.490Z,26.80
2018-11-04T18:41:44.565Z,25.33
2018-11-04T18:44:21.256Z,23.43
2018-11-04T18:47:05.170Z,27.70
2018-11-04T18:49:39.369Z,22.00
2018-11-04T18:52:16.386Z,20.27
2018-11-04T18:54:50.801Z,21.97
2018-11-04T18:57:25.117Z,22.50
2018-11-04T18:59:59.406Z,23.33
2018-11-04T19:02:36.396Z,27.47
2018-11-04T19:05:09.725Z,23.40
2018-11-04T19:07:43.980Z,21.23
2018-11-04T19:10:25.377Z,21.00
2018-11-04T19:13:12.879Z,21.37
2018-11-04T19:15:49.616Z,21.50
2018-11-04T19:18:25.319Z,22.07
2018-11-04T19:21:04.172Z,19.40
2018-11-04T19:23:39.330Z,19.43
2018-11-04T19:26:16.768Z,22.67
2018-11-04T19:28:58.263Z,25.77
2018-11-04T19:31:34.953Z,27.23
2018-11-04T19:34:15.757Z,33.07
2018-11-04T19:38:09.868Z,35.23
2018-11-04T19:40:44.282Z,29.67
2018-11-04T19:43:18.995Z,28.30
2018-11-04T19:45:56.033Z,26.60
2018-11-04T19:48:32.780Z,25.60
2018-11-04T19:51:15.325Z,35.40
2018-11-04T19:53:51.220Z,35.43
2018-11-04T19:56:30.287Z,45.03
2018-11-04T19:59:06.821Z,43.27
2018-11-04T20:01:42.270Z,36.20
2018-11-04T20:04:16.031Z,38.70
2018-11-04T20:06:49.730Z,42.67
2018-11-04T20:09:27.311Z,36.47
2018-11-04T20:12:05.989Z,31.52
2018-11-04T20:14:41.365Z,31.77
2018-11-04T20:17:18.848Z,32.00
2018-11-04T20:20:01.435Z,30.17
2018-11-04T20:22:36.827Z,30.17
2018-11-04T20:25:18.716Z,31.63
2018-11-04T20:27:53.487Z,38.75
2018-11-04T20:30:29.391Z,36.17
2018-11-04T20:33:05.698Z,40.70
2018-11-04T20:35:42.970Z,41.83
2018-11-04T20:41:25.727Z,32.90
2018-11-04T20:44:02.810Z,31.83
2018-11-04T20:46:45.589Z,40.87
2018-11-04T20:49:33.850Z,35.58
2018-11-04T20:52:09.348Z,37.97
2018-11-04T20:54:42.988Z,33.73
2018-11-04T20:57:30.770Z,35.27
2018-11-04T21:00:27.290Z,31.83
2018-11-04T21:03:02.953Z,34.17
2018-11-04T21:05:45.659Z,41.53
2018-11-04T21:08:21.614Z,38.33
2018-11-04T21:10:56.891Z,39.50
2018-11-04T21:13:33.534Z,35.37
2018-11-04T21:16:08.141Z,42.13
2018-11-04T21:18:45.055Z,38.20
2018-11-04T21:21:20.831Z,31.07
2018-11-04T21:23:57.355Z,31.67
2018-11-04T21:26:36.332Z,35.53
2018-11-04T21:29:12.179Z,36.93
2018-11-04T21:31:47.593Z,34.50
2018-11-04T21:34:26.401Z,36.93
2018-11-04T21:37:01.601Z,46.03
2018-11-04T21:39:35.560Z,56.15
2018-11-04T21:42:12.897Z,51.43
2018-11-04T21:44:47.721Z,49.17
2018-11-04T21:47:27.099Z,49.40
2018-11-04T21:50:08.494Z,53.27
2018-11-04T21:53:17.017Z,54.53
2018-11-04T21:55:59.697Z,52.97
2018-11-04T21:58:35.169Z,41.60
2018-11-04T22:01:20.386Z,47.23
2018-11-04T22:04:04.359Z,52.62
2018-11-04T22:06:38.652Z,71.83
2018-11-04T22:09:13.478Z,59.17
2018-11-04T22:11:49.423Z,43.17
2018-11-04T22:14:24.314Z,45.60
2018-11-04T22:17:00.731Z,73.57
2018-11-04T22:19:39.522Z,81.97
2018-11-04T22:22:18.631Z,66.17
2018-11-04T22:24:56.464Z,52.10
2018-11-04T22:27:30.058Z,52.63
2018-11-04T22:30:07.424Z,54.53
2018-11-04T22:32:41.410Z,43.17
2018-11-04T22:35:18.418Z,38.43
2018-11-04T22:37:52.494Z,53.03
2018-11-04T22:40:26.547Z,65.03
2018-11-04T22:43:03.574Z,54.57
2018-11-04T22:45:38.618Z,59.25
2018-11-04T22:48:11.950Z,78.67
2018-11-04T22:50:47.089Z,57.57
2018-11-04T22:53:21.042Z,47.13
2018-11-04T22:55:54.436Z,51.00
2018-11-04T22:58:27.787Z,51.60
2018-11-04T23:01:06.368Z,40.83
2018-11-04T23:03:43.035Z,47.57
2018-11-04T23:06:17.848Z,42.93
2018-11-04T23:08:55.127Z,44.33
2018-11-04T23:11:29.187Z,37.97
2018-11-04T23:14:02.831Z,31.57
2018-11-04T23:16:36.786Z,38.57
2018-11-04T23:19:10.490Z,42.07
2018-11-04T23:21:49.713Z,41.33
2018-11-04T23:24:22.863Z,46.47
2018-11-04T23:26:55.443Z,48.50
2018-11-04T23:29:28.596Z,55.20
2018-11-04T23:32:04.597Z,53.47
2018-11-04T23:34:37.363Z,53.30
2018-11-04T23:37:10.657Z,49.77
2018-11-04T23:39:44.060Z,57.07
2018-11-04T23:42:18.261Z,57.97
2018-11-04T23:44:51.833Z,47.42
2018-11-04T23:47:25.214Z,52.27
2018-11-04T23:49:59.665Z,42.23
2018-11-04T23:52:35.084Z,64.67
2018-11-04T23:55:09.191Z,46.27
2018-11-04T23:57:45.246Z,61.67
